N709LP CYHZ-KPWM
Flight info
| Callsign | N709LP |
|---|---|
| Flight time | N/A |
| Altitude | 40000 |
| Route | SENVI Q846 VIGMA DCT AJJAY |
| Aircraft | CL60/M-SBDE1E2E3FGHIJ1J4J5J7M3RWXYZ/LB1V1D1 |
Departure
| Time | N/A |
|---|---|
| Airport | Halifax / Stanfield International Airport (CYHZ) |
Arrival
| Time | 2026-05-06 01:50 |
|---|---|
| Airport | Portland International Jetport (KPWM) |
| Time | Latitude | Longitude | Altitude | Speed | Heading |
|---|---|---|---|---|---|
| 2026-05-06 01:11 | 44.47752 | -65.83046 | 38797 ft | 401 kts | 257° |
| 2026-05-06 01:12 | 44.47136 | -65.86817 | 38977 ft | 400 kts | 258° |
| 2026-05-06 01:12 | 44.46515 | -65.90607 | 39123 ft | 400 kts | 257° |
| 2026-05-06 01:12 | 44.45893 | -65.94398 | 39314 ft | 398 kts | 258° |
| 2026-05-06 01:12 | 44.45276 | -65.98151 | 39461 ft | 397 kts | 258° |
| 2026-05-06 01:13 | 44.44655 | -66.01922 | 39556 ft | 397 kts | 258° |
| 2026-05-06 01:13 | 44.44037 | -66.05669 | 39691 ft | 396 kts | 258° |
| 2026-05-06 01:13 | 44.43416 | -66.09424 | 39786 ft | 396 kts | 258° |
| 2026-05-06 01:14 | 44.41547 | -66.20689 | 39948 ft | 397 kts | 258° |
| 2026-05-06 01:14 | 44.40297 | -66.28185 | 39942 ft | 397 kts | 258° |
| 2026-05-06 01:15 | 44.39047 | -66.35645 | 39971 ft | 395 kts | 258° |
| 2026-05-06 01:15 | 44.37783 | -66.43163 | 39944 ft | 398 kts | 258° |
| 2026-05-06 01:16 | 44.36512 | -66.50695 | 39920 ft | 400 kts | 258° |
| 2026-05-06 01:16 | 44.35238 | -66.58209 | 39935 ft | 399 kts | 258° |
| 2026-05-06 01:17 | 44.33925 | -66.65754 | 39935 ft | 398 kts | 256° |
| 2026-05-06 01:17 | 44.32532 | -66.72984 | 39927 ft | 398 kts | 256° |
| 2026-05-06 01:18 | 44.31097 | -66.80399 | 39920 ft | 398 kts | 256° |
| 2026-05-06 01:18 | 44.29653 | -66.87832 | 39921 ft | 398 kts | 256° |
| 2026-05-06 01:19 | 44.28203 | -66.95271 | 39915 ft | 397 kts | 256° |
| 2026-05-06 01:19 | 44.26753 | -67.02679 | 39922 ft | 397 kts | 256° |
| 2026-05-06 01:20 | 44.25292 | -67.10116 | 39918 ft | 397 kts | 256° |
| 2026-05-06 01:20 | 44.23842 | -67.17474 | 39907 ft | 397 kts | 256° |
| 2026-05-06 01:21 | 44.22366 | -67.24930 | 39898 ft | 398 kts | 256° |
| 2026-05-06 01:21 | 44.20902 | -67.32302 | 39909 ft | 398 kts | 256° |
| 2026-05-06 01:22 | 44.19421 | -67.39728 | 39911 ft | 398 kts | 256° |
| 2026-05-06 01:22 | 44.17939 | -67.47134 | 39793 ft | 400 kts | 256° |
| 2026-05-06 01:23 | 44.17194 | -67.50856 | 39244 ft | 407 kts | 256° |
| 2026-05-06 01:23 | 44.16433 | -67.54645 | 38703 ft | 405 kts | 256° |
| 2026-05-06 01:23 | 44.15680 | -67.58385 | 38189 ft | 403 kts | 256° |
| 2026-05-06 01:23 | 44.14927 | -67.62120 | 37689 ft | 403 kts | 256° |
| 2026-05-06 01:24 | 44.14160 | -67.65921 | 37177 ft | 403 kts | 255° |
| 2026-05-06 01:24 | 44.13400 | -67.69678 | 36704 ft | 405 kts | 256° |
| 2026-05-06 01:24 | 44.12636 | -67.73453 | 36165 ft | 407 kts | 256° |
| 2026-05-06 01:24 | 44.11869 | -67.77232 | 35651 ft | 408 kts | 256° |
| 2026-05-06 01:25 | 44.11098 | -67.81025 | 35098 ft | 411 kts | 256° |
| 2026-05-06 01:25 | 44.10328 | -67.84808 | 34554 ft | 412 kts | 256° |
| 2026-05-06 01:25 | 44.09537 | -67.88686 | 33997 ft | 414 kts | 256° |
| 2026-05-06 01:25 | 44.08758 | -67.92498 | 33462 ft | 417 kts | 256° |
| 2026-05-06 01:26 | 44.07968 | -67.96358 | 32903 ft | 416 kts | 256° |
| 2026-05-06 01:26 | 44.07171 | -68.00247 | 32370 ft | 413 kts | 256° |
| 2026-05-06 01:26 | 44.06388 | -68.04055 | 31811 ft | 410 kts | 256° |
| 2026-05-06 01:26 | 44.05610 | -68.07831 | 31262 ft | 407 kts | 256° |
| 2026-05-06 01:27 | 44.04834 | -68.11591 | 30733 ft | 403 kts | 256° |
| 2026-05-06 01:27 | 44.04065 | -68.15308 | 30201 ft | 400 kts | 256° |
| 2026-05-06 01:27 | 44.03296 | -68.19023 | 29667 ft | 397 kts | 256° |
| 2026-05-06 01:27 | 44.02537 | -68.22679 | 29140 ft | 392 kts | 256° |
| 2026-05-06 01:28 | 44.01792 | -68.26260 | 28628 ft | 388 kts | 256° |
| 2026-05-06 01:28 | 44.01044 | -68.29851 | 28117 ft | 385 kts | 256° |
| 2026-05-06 01:28 | 44.00305 | -68.33392 | 27616 ft | 381 kts | 256° |
| 2026-05-06 01:28 | 43.99566 | -68.36923 | 27102 ft | 378 kts | 256° |
| 2026-05-06 01:29 | 43.98838 | -68.40402 | 26599 ft | 374 kts | 256° |
| 2026-05-06 01:29 | 43.98119 | -68.43827 | 26124 ft | 371 kts | 256° |
| 2026-05-06 01:29 | 43.97407 | -68.47212 | 25630 ft | 368 kts | 256° |
| 2026-05-06 01:29 | 43.96692 | -68.50609 | 25134 ft | 365 kts | 256° |
| 2026-05-06 01:30 | 43.95985 | -68.53961 | 24654 ft | 361 kts | 255° |
| 2026-05-06 01:30 | 43.95280 | -68.57302 | 24183 ft | 359 kts | 255° |
| 2026-05-06 01:30 | 43.94588 | -68.60572 | 23710 ft | 356 kts | 255° |
| 2026-05-06 01:30 | 43.93898 | -68.63828 | 23247 ft | 353 kts | 255° |
| 2026-05-06 01:31 | 43.93223 | -68.67007 | 22799 ft | 351 kts | 254° |
| 2026-05-06 01:31 | 43.92532 | -68.70261 | 22313 ft | 349 kts | 254° |
| 2026-05-06 01:31 | 43.91853 | -68.73447 | 21866 ft | 345 kts | 254° |
| 2026-05-06 01:31 | 43.91177 | -68.76619 | 21412 ft | 343 kts | 254° |
| 2026-05-06 01:32 | 43.90499 | -68.79793 | 20962 ft | 340 kts | 254° |
| 2026-05-06 01:32 | 43.89830 | -68.82923 | 20519 ft | 337 kts | 253° |
| 2026-05-06 01:32 | 43.89174 | -68.85983 | 20078 ft | 335 kts | 253° |
| 2026-05-06 01:32 | 43.88512 | -68.89073 | 19638 ft | 333 kts | 253° |
| 2026-05-06 01:33 | 43.87858 | -68.92114 | 19201 ft | 331 kts | 253° |
| 2026-05-06 01:33 | 43.87202 | -68.95167 | 18760 ft | 329 kts | 253° |
| 2026-05-06 01:33 | 43.86554 | -68.98171 | 18328 ft | 326 kts | 253° |
| 2026-05-06 01:33 | 43.85914 | -69.01135 | 18098 ft | 322 kts | 253° |
| 2026-05-06 01:34 | 43.85262 | -69.04157 | 17592 ft | 325 kts | 252° |
| 2026-05-06 01:34 | 43.84619 | -69.07127 | 17184 ft | 320 kts | 252° |
| 2026-05-06 01:34 | 43.83986 | -69.10049 | 16754 ft | 318 kts | 252° |
| 2026-05-06 01:34 | 43.83347 | -69.12994 | 16309 ft | 315 kts | 252° |
| 2026-05-06 01:35 | 43.82727 | -69.15847 | 15914 ft | 312 kts | 252° |
| 2026-05-06 01:35 | 43.82099 | -69.18731 | 15497 ft | 311 kts | 252° |
| 2026-05-06 01:35 | 43.81478 | -69.21583 | 15096 ft | 309 kts | 252° |
| 2026-05-06 01:35 | 43.80858 | -69.24423 | 14684 ft | 307 kts | 252° |
| 2026-05-06 01:36 | 43.80244 | -69.27229 | 14278 ft | 305 kts | 252° |
| 2026-05-06 01:36 | 43.79635 | -69.30016 | 13876 ft | 303 kts | 252° |
| 2026-05-06 01:36 | 43.79026 | -69.32793 | 13477 ft | 300 kts | 252° |
| 2026-05-06 01:36 | 43.78422 | -69.35545 | 13064 ft | 298 kts | 252° |
| 2026-05-06 01:37 | 43.77825 | -69.38262 | 12687 ft | 297 kts | 252° |
| 2026-05-06 01:37 | 43.77231 | -69.40960 | 12286 ft | 294 kts | 252° |
| 2026-05-06 01:37 | 43.76634 | -69.43672 | 11906 ft | 292 kts | 252° |
| 2026-05-06 01:37 | 43.76046 | -69.46336 | 11503 ft | 290 kts | 252° |
| 2026-05-06 01:38 | 43.75459 | -69.48995 | 11139 ft | 289 kts | 253° |
| 2026-05-06 01:38 | 43.74870 | -69.51657 | 10771 ft | 287 kts | 253° |
| 2026-05-06 01:38 | 43.74294 | -69.54262 | 10379 ft | 285 kts | 253° |
| 2026-05-06 01:38 | 43.73711 | -69.56889 | 9986 ft | 283 kts | 253° |
| 2026-05-06 01:39 | 43.73134 | -69.59490 | 9622 ft | 278 kts | 253° |
| 2026-05-06 01:39 | 43.72580 | -69.61984 | 9235 ft | 266 kts | 253° |
| 2026-05-06 01:39 | 43.72057 | -69.64331 | 8896 ft | 252 kts | 253° |
| 2026-05-06 01:39 | 43.71550 | -69.66599 | 8563 ft | 239 kts | 252° |
| 2026-05-06 01:40 | 43.71063 | -69.68767 | 8311 ft | 230 kts | 252° |
| 2026-05-06 01:40 | 43.70591 | -69.70865 | 7962 ft | 228 kts | 252° |
| 2026-05-06 01:40 | 43.70119 | -69.72961 | 7664 ft | 223 kts | 252° |
| 2026-05-06 01:40 | 43.69667 | -69.74973 | 7374 ft | 219 kts | 252° |
| 2026-05-06 01:41 | 43.69226 | -69.76967 | 7062 ft | 214 kts | 252° |
| 2026-05-06 01:41 | 43.68800 | -69.78891 | 6710 ft | 208 kts | 252° |
| 2026-05-06 01:41 | 43.68401 | -69.80708 | 6731 ft | 183 kts | 252° |
| 2026-05-06 01:41 | 43.68037 | -69.82393 | 6738 ft | 183 kts | 252° |
| 2026-05-06 01:42 | 43.67674 | -69.84053 | 6736 ft | 182 kts | 252° |
| 2026-05-06 01:42 | 43.67304 | -69.85744 | 6619 ft | 186 kts | 252° |
| 2026-05-06 01:42 | 43.66935 | -69.87453 | 6258 ft | 185 kts | 252° |
| 2026-05-06 01:42 | 43.66580 | -69.89120 | 5895 ft | 181 kts | 253° |
| 2026-05-06 01:43 | 43.66225 | -69.90792 | 5514 ft | 179 kts | 252° |
| 2026-05-06 01:43 | 43.65882 | -69.92425 | 5138 ft | 177 kts | 252° |
| 2026-05-06 01:43 | 43.65550 | -69.94042 | 4752 ft | 176 kts | 252° |
| 2026-05-06 01:43 | 43.65223 | -69.95651 | 4382 ft | 174 kts | 252° |
| 2026-05-06 01:44 | 43.64901 | -69.97268 | 4017 ft | 174 kts | 253° |
| 2026-05-06 01:44 | 43.64582 | -69.98882 | 3652 ft | 172 kts | 253° |
| 2026-05-06 01:44 | 43.64273 | -70.00462 | 3392 ft | 170 kts | 252° |
| 2026-05-06 01:44 | 43.63971 | -70.02035 | 3135 ft | 171 kts | 252° |
| 2026-05-06 01:45 | 43.63672 | -70.03641 | 2975 ft | 170 kts | 253° |
| 2026-05-06 01:45 | 43.63369 | -70.05246 | 2988 ft | 172 kts | 253° |
| 2026-05-06 01:45 | 43.63069 | -70.06856 | 2989 ft | 173 kts | 253° |
| 2026-05-06 01:45 | 43.62917 | -70.08518 | 2980 ft | 177 kts | 265° |
| 2026-05-06 01:46 | 43.63003 | -70.10253 | 2789 ft | 179 kts | 271° |
| 2026-05-06 01:46 | 43.63164 | -70.11885 | 2573 ft | 166 kts | 271° |
| 2026-05-06 01:46 | 43.63303 | -70.13370 | 2330 ft | 145 kts | 270° |
| 2026-05-06 01:46 | 43.63408 | -70.14632 | 2200 ft | 119 kts | 268° |
| 2026-05-06 01:47 | 43.63487 | -70.15775 | 2037 ft | 119 kts | 267° |
| 2026-05-06 01:47 | 43.63556 | -70.16893 | 1872 ft | 118 kts | 266° |
| 2026-05-06 01:47 | 43.63624 | -70.18035 | 1719 ft | 118 kts | 268° |
| 2026-05-06 01:47 | 43.63712 | -70.19171 | 1542 ft | 120 kts | 269° |
| 2026-05-06 01:48 | 43.63785 | -70.20338 | 1419 ft | 117 kts | 268° |
| 2026-05-06 01:48 | 43.63857 | -70.21490 | 1243 ft | 123 kts | 269° |
| 2026-05-06 01:48 | 43.63925 | -70.22699 | 1117 ft | 125 kts | 269° |
| 2026-05-06 01:48 | 43.64019 | -70.23891 | 921 ft | 124 kts | 269° |
| 2026-05-06 01:49 | 43.64086 | -70.25073 | 762 ft | 126 kts | 270° |
| 2026-05-06 01:49 | 43.64159 | -70.26289 | 565 ft | 128 kts | 272° |
| 2026-05-06 01:49 | 43.64267 | -70.27917 | 345 ft | 134 kts | 272° |
| 2026-05-06 01:50 | 43.64350 | -70.29099 | 194 ft | 131 kts | 273° |
| 2026-05-06 01:50 | 43.64435 | -70.30358 | 56 ft | 125 kts | 274° |
| 2026-05-06 01:50 | 43.64506 | -70.31391 | 67 ft | 87 kts | 275° |
| 2026-05-06 01:50 | 43.64541 | -70.31924 | 67 ft | 40 kts | 276° |
| 2026-05-06 01:51 | 43.64573 | -70.32094 | 67 ft | 11 kts | 350° |
| 2026-05-06 01:51 | 43.64651 | -70.32072 | 67 ft | 9 kts | 42° |
| 2026-05-06 01:51 | 43.64655 | -70.31984 | 67 ft | 4 kts | 98° |
| 2026-05-06 01:51 | 43.64651 | -70.31929 | 68 ft | 8 kts | 95° |
| 2026-05-06 01:52 | 43.64645 | -70.31836 | 70 ft | 11 kts | 95° |
| 2026-05-06 01:52 | 43.64637 | -70.31712 | 70 ft | 14 kts | 96° |
| 2026-05-06 01:52 | 43.64627 | -70.31560 | 69 ft | 17 kts | 95° |
| 2026-05-06 01:52 | 43.64615 | -70.31383 | 68 ft | 20 kts | 95° |
| 2026-05-06 01:53 | 43.64603 | -70.31207 | 64 ft | 17 kts | 95° |
| 2026-05-06 01:53 | 43.64589 | -70.31018 | 61 ft | 22 kts | 95° |
| 2026-05-06 01:53 | 43.64575 | -70.30819 | 56 ft | 13 kts | 95° |
| 2026-05-06 01:53 | 43.64573 | -70.30719 | 53 ft | 10 kts | 69° |
| 2026-05-06 01:54 | 43.64650 | -70.30701 | 52 ft | 13 kts | 358° |
| 2026-05-06 01:54 | 43.64756 | -70.30707 | 52 ft | 16 kts | 358° |
| 2026-05-06 01:54 | 43.64843 | -70.30710 | 52 ft | 11 kts | 358° |
| 2026-05-06 01:54 | 43.64899 | -70.30712 | 52 ft | 4 kts | 351° |
| 2026-05-06 01:55 | 43.64913 | -70.30748 | 54 ft | 1 kts | 266° |
| 2026-05-06 01:55 | 43.64912 | -70.30761 | 54 ft | 2 kts | 263° |
| 2026-05-06 01:55 | 43.64905 | -70.30807 | 56 ft | 5 kts | 256° |
| 2026-05-06 01:55 | 43.64908 | -70.30837 | 57 ft | 2 kts | 348° |
| 2026-05-06 01:56 | 43.64923 | -70.30836 | 57 ft | 1 kts | 356° |
| 2026-05-06 01:56 | 43.64924 | -70.30836 | 57 ft | 0 kts | 359° |